PWSweather.com
Personal Weather Stations
Station Observations
SWHWX01
St AppolinardFR 38160

St AppolinardFR 38160

Lat: 45.191, Lon: 5.268

Elevation: 1460

Station Type: Davis Vantage Pro2 Plus

www.sweetwebhome.com/?show=wxindex

High Low Average
Temperature 48.1°F8.9°C 40.0°F4.4°C 43.5°F6.4°C
Dew Point 45.0°F7.2°C 36.6°F2.6°C 39.5°F4.2°C
Winds 10.6 mph 17.1 kmh Calm Calm 4.0 mph SSW6.4 kmh SSW
Wind Gusts 17.0 mph27.4 kmh -- 6.0 mph9.7 kmh
Humidity 93% 68% 86%
Pressure 30.14 in1020.7 mb 29.89 in1012.2 mb -
Precipitation 0.39 in9.9 mm - -
Hour Temp Dew Point Humidity Winds Wind Gusts Pressure Precip Precip Rate Daily Precip Total
12:00 AM 48.1°F8.9°C 45.0°F7.2°C 89% 3.2 mph W5.1 kmh W 6.0 mph9.7 kmh 29.98 in1015.2 mb - 0.03 in0.8 mm 0.03 in0.8 mm
12:30 AM 47.0°F8.3°C 44.6°F7.0°C 91% 6.5 mph NW10.5 kmh NW 10.0 mph16.1 kmh 30.00 in1015.9 mb - 0.08 in2.0 mm 0.08 in2.0 mm
01:00 AM 45.3°F7.4°C 42.5°F5.8°C 90% 1.0 mph NNW1.6 kmh NNW 3.0 mph4.8 kmh 30.02 in1016.6 mb - 0.04 in1.0 mm 0.11 in2.8 mm
01:30 AM 44.3°F6.8°C 41.9°F5.5°C 91% 0.4 mph N0.6 kmh N 3.0 mph4.8 kmh 30.05 in1017.6 mb - 0.04 in1.0 mm 0.15 in3.8 mm
02:00 AM 43.1°F6.2°C 41.2°F5.1°C 93% 4.1 mph E6.6 kmh E 5.0 mph8.0 kmh 30.05 in1017.6 mb - 0.04 in1.0 mm 0.19 in4.8 mm
02:30 AM 42.3°F5.7°C 40.4°F4.7°C 93% 3.5 mph E5.6 kmh E 6.0 mph9.7 kmh 30.06 in1017.9 mb - 0.02 in0.5 mm 0.21 in5.3 mm
03:00 AM 42.1°F5.6°C 40.3°F4.6°C 93% 2.8 mph ENE4.5 kmh ENE 4.0 mph6.4 kmh 30.07 in1018.3 mb - 0.02 in0.5 mm 0.22 in5.6 mm
03:30 AM 41.9°F5.5°C 40.0°F4.4°C 93% 0.6 mph ENE1.0 kmh ENE 3.0 mph4.8 kmh 30.08 in1018.6 mb - 0.02 in0.5 mm 0.24 in6.1 mm
04:00 AM 41.6°F5.3°C 39.7°F4.3°C 93% 1.9 mph ENE3.1 kmh ENE 2.0 mph3.2 kmh 30.09 in1019.0 mb - 0.02 in0.5 mm 0.27 in6.9 mm
04:30 AM 41.2°F5.1°C 39.3°F4.1°C 93% 2.4 mph ENE3.9 kmh ENE 3.0 mph4.8 kmh 30.09 in1019.0 mb - 0.00 in0.0 mm 0.27 in6.9 mm
05:00 AM 41.2°F5.1°C 39.0°F3.9°C 92% 1.4 mph ENE2.3 kmh ENE 2.0 mph3.2 kmh 30.09 in1019.0 mb - 0.00 in0.0 mm 0.27 in6.9 mm
05:30 AM 41.5°F5.3°C 39.1°F3.9°C 91% 0.3 mph ENE0.5 kmh ENE 1.0 mph1.6 kmh 30.09 in1019.0 mb - 0.00 in0.0 mm 0.27 in6.9 mm
06:00 AM 41.2°F5.1°C 38.2°F3.4°C 89% 0.6 mph ENE1.0 kmh ENE 2.0 mph3.2 kmh 30.08 in1018.6 mb - 0.00 in0.0 mm 0.27 in6.9 mm
06:30 AM 41.3°F5.2°C 38.3°F3.5°C 89% 2.5 mph ENE4.0 kmh ENE 3.0 mph4.8 kmh 30.08 in1018.6 mb - 0.00 in0.0 mm 0.27 in6.9 mm
07:00 AM 41.2°F5.1°C 37.9°F3.3°C 88% 1.9 mph ENE3.1 kmh ENE 2.0 mph3.2 kmh 30.08 in1018.6 mb - 0.00 in0.0 mm 0.27 in6.9 mm
07:30 AM 41.4°F5.2°C 38.4°F3.6°C 89% 3.2 mph WNW5.1 kmh WNW 4.0 mph6.4 kmh 30.09 in1019.0 mb - 0.00 in0.0 mm 0.27 in6.9 mm
08:00 AM 41.6°F5.3°C 38.6°F3.7°C 89% 3.1 mph WNW5.0 kmh WNW 3.0 mph4.8 kmh 30.09 in1019.0 mb - 0.00 in0.0 mm 0.27 in6.9 mm
08:30 AM 41.2°F5.1°C 37.9°F3.3°C 88% Calm Calm -- 30.11 in1019.6 mb - 0.00 in0.0 mm 0.27 in6.9 mm
09:00 AM 40.0°F4.4°C 37.6°F3.1°C 91% Calm Calm 1.0 mph1.6 kmh 30.12 in1020.0 mb - 0.00 in0.0 mm 0.27 in6.9 mm
09:30 AM 40.4°F4.7°C 38.2°F3.4°C 92% 1.7 mph WNW2.7 kmh WNW 4.0 mph6.4 kmh 30.14 in1020.7 mb - 0.00 in0.0 mm 0.27 in6.9 mm
10:00 AM 41.0°F5.0°C 38.6°F3.7°C 91% Calm Calm -- 30.14 in1020.7 mb - 0.00 in0.0 mm 0.27 in6.9 mm
10:30 AM 43.1°F6.2°C 40.1°F4.5°C 89% Calm Calm -- 30.14 in1020.7 mb - 0.00 in0.0 mm 0.27 in6.9 mm
11:00 AM 44.3°F6.8°C 40.1°F4.5°C 85% 2.6 mph WNW4.2 kmh WNW 3.0 mph4.8 kmh 30.13 in1020.3 mb - 0.00 in0.0 mm 0.27 in6.9 mm
11:30 AM 43.7°F6.5°C 39.5°F4.2°C 85% 4.0 mph S6.4 kmh S 7.0 mph11.3 kmh 30.12 in1020.0 mb - 0.00 in0.0 mm 0.27 in6.9 mm
12:00 PM 43.8°F6.6°C 39.9°F4.4°C 86% 3.0 mph S4.8 kmh S 4.0 mph6.4 kmh 30.11 in1019.6 mb - 0.00 in0.0 mm 0.27 in6.9 mm
12:30 PM 44.0°F6.7°C 39.8°F4.3°C 85% 2.5 mph S4.0 kmh S 3.0 mph4.8 kmh 30.08 in1018.6 mb - 0.00 in0.0 mm 0.27 in6.9 mm
01:00 PM 45.1°F7.3°C 39.3°F4.1°C 80% 3.0 mph S4.8 kmh S 3.0 mph4.8 kmh 30.05 in1017.6 mb - 0.00 in0.0 mm 0.27 in6.9 mm
01:30 PM 45.2°F7.3°C 39.1°F3.9°C 79% 5.3 mph S8.5 kmh S 7.0 mph11.3 kmh 30.01 in1016.3 mb - 0.00 in0.0 mm 0.27 in6.9 mm
02:00 PM 46.7°F8.2°C 38.9°F3.8°C 74% 7.8 mph S12.6 kmh S 10.0 mph16.1 kmh 29.96 in1014.6 mb - 0.00 in0.0 mm 0.27 in6.9 mm
02:30 PM 46.4°F8.0°C 39.2°F4.0°C 76% 4.6 mph SW7.4 kmh SW 6.0 mph9.7 kmh 29.94 in1013.9 mb - 0.00 in0.0 mm 0.27 in6.9 mm
03:00 PM 46.5°F8.1°C 37.2°F2.9°C 70% 9.5 mph SW15.3 kmh SW 14.0 mph22.5 kmh 29.93 in1013.5 mb - 0.00 in0.0 mm 0.27 in6.9 mm
03:30 PM 46.2°F7.9°C 37.4°F3.0°C 71% 5.6 mph SSE9.0 kmh SSE 12.0 mph19.3 kmh 29.92 in1013.2 mb - 0.00 in0.0 mm 0.27 in6.9 mm
04:00 PM 47.2°F8.4°C 37.2°F2.9°C 68% 7.8 mph S12.6 kmh S 16.0 mph25.7 kmh 29.91 in1012.9 mb - 0.00 in0.0 mm 0.27 in6.9 mm
04:30 PM 45.2°F7.3°C 39.0°F3.9°C 79% 10.6 mph SW17.1 kmh SW 16.0 mph25.7 kmh 29.89 in1012.2 mb - 0.02 in0.5 mm 0.29 in7.4 mm
05:00 PM 43.6°F6.4°C 39.7°F4.3°C 86% 7.0 mph S11.3 kmh S 8.0 mph12.9 kmh 29.89 in1012.2 mb - 0.05 in1.3 mm 0.33 in8.4 mm
05:30 PM 43.1°F6.2°C 39.8°F4.3°C 88% 6.0 mph S9.7 kmh S 10.0 mph16.1 kmh 29.89 in1012.2 mb - 0.03 in0.8 mm 0.36 in9.1 mm
06:00 PM 43.6°F6.4°C 40.0°F4.4°C 87% 5.5 mph SSW8.9 kmh SSW 10.0 mph16.1 kmh 29.89 in1012.2 mb - 0.02 in0.5 mm 0.39 in9.9 mm
06:30 PM 44.1°F6.7°C 40.2°F4.6°C 86% 10.1 mph WSW16.3 kmh WSW 17.0 mph27.4 kmh 29.91 in1012.9 mb - 0.00 in0.0 mm 0.39 in9.9 mm
07:00 PM 43.7°F6.5°C 40.4°F4.7°C 88% 9.0 mph SW14.5 kmh SW 13.0 mph20.9 kmh 29.91 in1012.9 mb - 0.00 in0.0 mm 0.39 in9.9 mm
07:30 PM 44.0°F6.7°C 40.4°F4.7°C 87% 9.8 mph SW15.8 kmh SW 17.0 mph27.4 kmh 29.92 in1013.2 mb - 0.01 in0.3 mm 0.39 in9.9 mm
08:00 PM 44.1°F6.7°C 39.9°F4.4°C 85% 7.0 mph WSW11.3 kmh WSW 7.0 mph11.3 kmh 29.95 in1014.2 mb - 0.00 in0.0 mm 0.39 in9.9 mm
08:30 PM 43.8°F6.6°C 39.6°F4.2°C 85% 2.6 mph SW4.2 kmh SW 4.0 mph6.4 kmh 29.96 in1014.6 mb - 0.00 in0.0 mm 0.39 in9.9 mm
09:00 PM 43.4°F6.3°C 39.8°F4.3°C 87% 1.1 mph SW1.8 kmh SW 2.0 mph3.2 kmh 29.99 in1015.6 mb - 0.00 in0.0 mm 0.39 in9.9 mm
09:30 PM 42.9°F6.1°C 39.3°F4.1°C 87% 4.4 mph SW7.1 kmh SW 6.0 mph9.7 kmh 30.00 in1015.9 mb - 0.00 in0.0 mm 0.39 in9.9 mm
10:00 PM 43.2°F6.2°C 39.3°F4.1°C 86% 1.5 mph WSW2.4 kmh WSW 2.0 mph3.2 kmh 30.02 in1016.6 mb - 0.00 in0.0 mm 0.39 in9.9 mm
10:30 PM 42.8°F6.0°C 39.2°F4.0°C 87% 0.8 mph WSW1.3 kmh WSW 3.0 mph4.8 kmh 30.04 in1017.3 mb - 0.00 in0.0 mm 0.39 in9.9 mm
11:00 PM 43.4°F6.3°C 38.9°F3.8°C 84% 1.9 mph NE3.1 kmh NE 3.0 mph4.8 kmh 30.05 in1017.6 mb - 0.00 in0.0 mm 0.39 in9.9 mm
11:30 PM 44.4°F6.9°C 36.6°F2.6°C 74% 5.7 mph NW9.2 kmh NW 9.0 mph14.5 kmh 30.07 in1018.3 mb - 0.00 in0.0 mm 0.39 in9.9 mm